x

8454000 - Providence, Ri (foxr1) Weather Station

7:54 - Tue 30th Jun 2015 All times are EDT. -4 hours from GMT.

  • Wind
    10mph, 13mph gusts
  • Sea Temp 68°f
  • Aire Temp 72°f
  • Sea Pressure 1013.2mb
  • 8454000 - Providence, Ri
  • 8454000 - Providence, Ri

More Historic Weather Station data

Upgrade to MSW Pro to gain access to the past 30 days of data for over 8000 Wavebouys and Weather Stations around the globe.

Join Pro

Comparision Forecast

View Surf forecast
   
mar 06/30 7:54 10 13 mph 1013.2mb 68f 72f
7:48 9 11 mph 1013.3mb 68f 72f
7:42 9 11 mph 1013.3mb 68f 73f
7:36 10 14 mph 1013.4mb 68f 73f
7:00 13 14 mph 1013.2mb 68f 73f
6:54 13 16 mph 1013.1mb 67f 73f
6:48 11 15 mph 1013.3mb 67f 74f
6:42 14 16 mph 1013.3mb 67f 74f
6:36 11 16 mph 1013.3mb 67f 74f
6:30 15 17 mph 1013.3mb 67f 75f
6:24 15 17 mph 1013.3mb 67f 75f
6:18 14 17 mph 1013.3mb 67f 75f
6:12 13 17 mph 1013.5mb 67f 76f
6:06 13 17 mph 1013.4mb 67f 76f
6:00 16 18 mph 1013.4mb 67f 76f
5:54 16 20 mph 1013.4mb 67f 76f
5:48 15 20 mph 1013.2mb 67f 75f
5:42 16 21 mph 1013.3mb 67f 76f
5:36 17 22 mph 1013.4mb 67f 76f
5:30 15 20 mph 1013.4mb 67f 76f
5:24 15 18 mph 1013.4mb 67f 76f
5:18 10 16 mph 1013.5mb 67f 78f
5:12 14 20 mph 1013.4mb 67f 78f
5:06 18 22 mph 1013.4mb 67f 76f
5:00 16 21 mph 1013.4mb 67f 77f
4:54 16 21 mph 1013.4mb 67f 77f
4:48 16 21 mph 1013.5mb 67f 77f
4:42 14 18 mph 1013.6mb 67f 77f
4:36 13 21 mph 1013.7mb 67f 77f
4:30 16 20 mph 1013.6mb 67f 76f
4:24 17 21 mph 1013.7mb 67f 76f
4:18 17 22 mph 1013.6mb 67f 76f
4:12 17 24 mph 1013.5mb 67f 77f
4:06 20 24 mph 1013.5mb 67f 76f
4:00 18 23 mph 1013.6mb 67f 77f
3:54 18 22 mph 1013.7mb 68f 77f
3:48 18 24 mph 1013.7mb 68f 78f
3:42 17 20 mph 1013.7mb 68f 78f
3:36 8 14 mph 1013.7mb 68f 81f
3:30 13 16 mph 1013.7mb 68f 81f
3:24 9 15 mph 1013.8mb 68f 81f
3:18 10 16 mph 1013.9mb 68f 82f
3:12 14 17 mph 1014mb 67f 81f
3:06 14 20 mph 1014.1mb 67f 81f
3:00 13 16 mph 1014.1mb 67f 81f
2:54 14 20 mph 1014mb 67f 81f
2:48 13 20 mph 1014mb 67f 82f
2:42 7 17 mph 1014mb 67f 82f
2:36 15 22 mph 1014.1mb 67f 82f
2:30 17 23 mph 1014.1mb 67f 81f
2:24 13 17 mph 1014mb 67f 82f
2:18 9 17 mph 1014mb 67f 82f
2:12 13 17 mph 1014.1mb 67f 80f
2:06 9 16 mph 1014.1mb 67f 82f
2:00 14 18 mph 1014mb 67f 82f
1:54 11 18 mph 1014mb 67f 82f
1:48 14 21 mph 1013.9mb 67f 81f
1:42 11 18 mph 1014mb 67f 76f
1:36 14 17 mph 1014mb 67f 76f
1:30 11 15 mph 1014mb 67f 76f
1:24 10 15 mph 1014.1mb 67f 76f
1:18 10 15 mph 1014.1mb 67f 75f
1:12 11 16 mph 1014.1mb 67f 76f
1:06 13 17 mph 1014.2mb 67f 76f
1:00 14 18 mph 1014.3mb 67f 76f
12:54 16 18 mph 1014.4mb 67f 76f
12:48 14 17 mph 1014.4mb 67f 76f
12:42 13 18 mph 1014.4mb 67f 76f
12:36 15 18 mph 1014.4mb 67f 75f
12:30 15 18 mph 1014.4mb 67f 75f
12:24 11 15 mph 1014.5mb 67f 75f
12:18 10 13 mph 1014.5mb 67f 75f
12:12 9 13 mph 1014.5mb 67f 75f
12:06 10 14 mph 1014.6mb 67f 75f
12:00 8 11 mph 1014.6mb 67f 74f
11:54 9 11 mph 1014.6mb 67f 74f
11:48 10 13 mph 1014.6mb 67f 74f
11:42 10 13 mph 1014.7mb 67f 74f
11:36 11 14 mph 1014.7mb 66f 74f
11:30 8 11 mph 1014.8mb 66f 74f
11:24 10 11 mph 1014.8mb 66f 74f
11:18 10 13 mph 1014.8mb 66f 73f
11:12 10 13 mph 1014.8mb 66f 73f
11:06 10 11 mph 1014.8mb 66f 73f
11:00 6 10 mph 1014.8mb 66f 73f
10:54 9 10 mph 1014.8mb 66f 72f
10:48 9 10 mph 1014.8mb 66f 72f
10:42 7 10 mph 1014.8mb 66f 71f
10:36 7 8 mph 1014.8mb 66f 72f
10:30 5 7 mph 1014.8mb 66f 73f
10:24 2 7 mph 1014.9mb 66f 72f
10:18 6 7 mph 1015mb 66f 72f
10:12 6 7 mph 1014.9mb 67f 72f
10:06 3 8 mph 1014.8mb 67f 72f
10:00 5 8 mph 1014.8mb 66f 74f
9:54 3 8 mph 1014.9mb 66f 75f
9:48 2 7 mph 1014.9mb 66f 74f
9:42 5 8 mph 1014.9mb 66f 74f
9:36 3 5 mph 1014.9mb 66f 73f
9:30 3 8 mph 1014.8mb 66f 72f
9:24 5 6 mph 1014.8mb 66f 70f
9:18 3 7 mph 1014.9mb 66f 70f
9:12 6 7 mph 1015.1mb 66f 69f
9:06 6 8 mph 1015.1mb 66f 69f
9:00 5 7 mph 1015.1mb 66f 69f
8:54 3 5 mph 1015.2mb 66f 69f
8:48 5 6 mph 1015.3mb 66f 68f
8:42 6 7 mph 1015.4mb 66f 67f
8:36 6 7 mph 1015.3mb 66f 67f
8:30 6 7 mph 1015.2mb 66f 67f
8:24 5 7 mph 1015.4mb 66f 67f
8:18 7 8 mph 1015.3mb 66f 67f
8:12 6 7 mph 1015.4mb 66f 67f
8:06 5 6 mph 1015.3mb 66f 67f
8:00 5 6 mph 1015.3mb 66f 66f
7:54 5 6 mph 1015.4mb 66f 66f
7:48 5
mph
1015.3mb 66f 66f
7:42 5
mph
1015.2mb 66f 66f
7:36 3
mph
1015.1mb 65f 66f
7:30 3
mph
1015.1mb 65f 65f
7:24 3
mph
1015.1mb 65f 65f
7:18 1 2 mph 1015.1mb 65f 66f
7:12 1 2 mph 1015mb 65f 65f
7:06 1 2 mph 1014.8mb 65f 65f
7:00 2
mph
1014.8mb 65f 64f
6:54  -  1 mph 1014.7mb 65f 65f
6:48 2 3 mph 1014.7mb 65f 65f
6:42 2 3 mph 1014.6mb 65f 65f
6:36 1
mph
1014.6mb 65f 64f
6:30  -  1 mph 1014.5mb 65f 64f
6:24 1 2 mph 1014.5mb 65f 64f
6:18  -  1 mph 1014.5mb 65f 64f
6:12  -  1 mph 1014.4mb 65f 63f
6:06  -  1 mph 1014.3mb 65f 63f
6:00  -  1 mph 1014.3mb 66f 63f
5:54 1 3 mph 1014.3mb 66f 63f
5:48 2 3 mph 1014.3mb 66f 63f
5:42 3
mph
1014.3mb 66f 63f
5:36 2
mph
1014.3mb 66f 63f
5:30 1 2 mph 1014.3mb 66f 63f
5:24 1 2 mph 1014.3mb 66f 63f
5:18 1 2 mph 1014.2mb 66f 63f
5:12  -  2 mph 1014.2mb 66f 63f
5:06 2
mph
1014.1mb 66f 63f
5:00 1 2 mph 1014mb 66f 63f
4:54  -  2 mph 1014.1mb 66f 63f
4:48  -  1 mph 1014.1mb 66f 63f
4:42  -  1 mph 1014.1mb 66f 63f
4:36 1 2 mph 1014mb 66f 63f
4:30 2
mph
1014.1mb 66f 63f
4:24 1 2 mph 1014.1mb 66f 63f
4:18  -  1 mph 1014.2mb 66f 63f
4:12  -  2 mph 1014.1mb 66f 63f
4:06  -  1 mph 1014.1mb 66f 63f
4:00  -  1 mph 1014.1mb 66f 63f
3:54 1 2 mph 1014.1mb 66f 63f
3:48  -  1 mph 1014.1mb 66f 64f
3:42  -  2 mph 1014.1mb 66f 64f
3:36 1 2 mph 1014mb 66f 64f
3:30 1 2 mph 1013.9mb 66f 64f
3:24 2 3 mph 1013.9mb 66f 64f
3:18 2 3 mph 1013.9mb 66f 64f
3:12 2 5 mph 1013.9mb 66f 64f
3:06 2 5 mph 1013.9mb 66f 64f
3:00 5 6 mph 1013.9mb 66f 64f
2:54 3 5 mph 1013.8mb 66f 64f
2:48 3 6 mph - 66f -
2:42 2 5 mph - 66f -
2:36 2 5 mph - 66f -
2:30 2 3 mph 1013.8mb 66f 64f
2:24  -  2 mph 1013.8mb 66f 64f
2:18  -  2 mph 1013.8mb 66f 64f
2:12 2 5 mph 1013.8mb 66f 65f
2:06  -  3 mph 1013.7mb 66f 65f
2:00  -  mph 1013.7mb 66f 64f
1:54  -  1 mph 1013.7mb 66f 65f
1:48  -  1 mph 1013.6mb 66f 65f
1:42  -  2 mph 1013.5mb 66f 65f
1:36 2 3 mph 1013.6mb 66f 65f
1:30 3 5 mph 1013.6mb 66f 65f
1:24 3 5 mph 1013.6mb 66f 66f
1:18 3 6 mph 1013.5mb 66f 66f
1:12 5 6 mph 1013.5mb 66f 66f
1:06 3 5 mph 1013.5mb 66f 66f
1:00 3 6 mph 1013.5mb 66f 66f
12:54 3 5 mph 1013.6mb 66f 66f
12:48 3 6 mph 1013.6mb 66f 66f
12:42 3 8 mph 1013.6mb 66f 66f
12:36 5 8 mph 1013.5mb 66f 66f
12:30 5 9 mph 1013.5mb 66f 67f
12:24 6 9 mph 1013.5mb 66f 67f
12:18 7 8 mph 1013.4mb 66f 67f
12:12 5 9 mph 1013.4mb 66f 67f
12:06 7 11 mph 1013.4mb 66f 67f
12:00 6 9 mph 1013.4mb 66f 67f
lun 06/29 11:54 7 9 mph 1013.3mb 66f 67f
11:48 8 13 mph 1013.3mb 66f 67f
11:42 8 14 mph 1013.3mb 66f 68f
11:36 9 13 mph 1013.3mb 66f 68f
11:30 7 10 mph 1013.3mb 66f 68f
11:24 7 9 mph 1013.3mb 66f 68f
11:18 7 10 mph 1013.2mb 66f 67f
11:12 6 9 mph 1013.1mb 66f 67f
11:06 6 9 mph 1013.1mb 66f 67f
11:00 7 10 mph 1013.2mb 66f 67f
10:54 6 9 mph 1013.1mb 66f 67f
10:48 8 10 mph 1013mb 66f 67f
10:42 7 10 mph 1012.9mb 66f 67f
10:36 8 11 mph 1013mb 66f 68f
10:30 6 8 mph 1012.9mb 66f 68f
10:24 7 9 mph 1013mb 66f 68f
10:18 7 11 mph 1012.9mb 66f 68f
10:12 7 9 mph 1012.9mb 66f 68f
10:06 7 9 mph 1012.9mb 66f 68f
10:00 5 6 mph 1012.8mb 66f 68f
9:54 6 7 mph 1012.8mb 66f 68f
9:48 6 8 mph 1012.7mb 66f 69f
9:42 6 9 mph 1012.6mb 66f 69f
9:36 8 10 mph 1012.5mb 66f 69f
9:30 8 10 mph 1012.5mb 66f 69f
9:24 9 11 mph 1012.4mb 66f 69f
9:18 6 10 mph 1012.2mb 66f 69f
9:12 8 10 mph 1012.1mb 66f 70f
9:06 7 11 mph 1012.1mb 66f 70f
9:00 7 10 mph 1012mb 66f 70f
8:54 7 11 mph 1012mb 66f 70f
8:48 10 14 mph 1011.9mb 66f 71f
8:42 6 7 mph 1011.8mb 66f 72f
8:36 5 6 mph 1011.7mb 66f 72f
8:30 6 7 mph 1011.7mb 66f 72f
8:24 5 8 mph 1011.7mb 66f 72f
8:18 6 9 mph 1011.7mb 66f 72f
8:12 6 9 mph 1011.7mb 66f 73f
8:06 8 13 mph 1011.7mb 66f 73f
8:00 8 10 mph 1011.7mb 66f 73f
7:54 7 10 mph 1011.7mb 65f 73f
7:48 8 11 mph 1011.7mb 65f 73f
7:42 7 10 mph 1011.6mb 65f 74f
7:36 7 10 mph 1011.6mb 65f 73f
7:30 8 13 mph 1011.5mb 65f 73f
7:24 6 13 mph 1011.5mb 65f 74f
7:18 7 13 mph 1011.5mb 65f 74f
7:12 8 13 mph 1011.5mb 65f 74f
7:06 7 11 mph 1011.3mb 65f 74f
7:00 8 11 mph 1011.2mb 65f 74f
6:54 9 14 mph 1011.2mb 65f 74f
6:48 9 13 mph 1011.1mb 65f 75f
6:42 8 11 mph 1011.1mb 65f 76f
6:36 8 13 mph 1011.1mb 65f 75f
6:30 9 14 mph 1011mb 65f 75f
6:24 9 14 mph 1011mb 65f 75f
6:18 8 11 mph 1010.9mb 65f 75f
6:12 9 13 mph 1010.8mb 65f 74f
6:06 8 10 mph 1010.8mb 65f 74f
6:00 8 11 mph 1010.7mb 65f 74f
5:54 10 15 mph 1010.7mb 65f 74f
5:48 9 10 mph 1010.7mb 65f 74f
5:42 3 7 mph 1010.6mb 65f 74f
5:36 7 10 mph 1010.5mb 65f 74f
5:30 8 13 mph 1010.5mb 65f 74f
5:24 8 13 mph 1010.5mb 65f 74f
5:18 9 15 mph 1010.6mb 65f 74f
5:12 9 14 mph 1010.6mb 65f 74f
5:06 9 15 mph 1010.5mb 65f 74f
5:00 8 13 mph 1010.5mb 65f 74f
4:54 8 17 mph 1010.5mb 65f 74f
4:48 10 14 mph 1010.4mb 65f 74f
4:42 8 11 mph 1010.4mb 65f 74f
4:36 11 14 mph 1010.3mb 65f 74f
4:30 7 13 mph 1010.1mb 65f 75f
4:24 11 14 mph 1010.1mb 65f 74f
4:18 10 14 mph 1010.2mb 65f 74f
4:12 10 13 mph 1010.1mb 65f 74f
4:06 8 13 mph 1010.2mb 65f 75f
4:00 9 13 mph 1010.2mb 65f 74f
3:54 9 16 mph 1010.2mb 65f 75f
3:48 11 16 mph 1010.1mb 65f 75f
3:42 10 16 mph 1010.1mb 65f 75f
3:36 9 15 mph 1010mb 65f 74f
3:30 7 11 mph 1010.1mb 65f 75f
3:24 7 10 mph 1010.1mb 66f 75f
3:18 6 9 mph 1010.1mb 66f 75f
3:12 10 14 mph 1010mb 66f 75f
3:06 10 14 mph 1010mb 66f 75f
3:00 7 10 mph 1010mb 66f 74f
2:54 8 11 mph 1010mb 66f 74f
2:48 7 11 mph 1010mb 66f 74f
2:42 8 13 mph 1009.9mb 65f 74f
2:36 7 14 mph 1010mb 65f 73f
2:30 8 14 mph 1009.9mb 65f 73f
2:24 10 14 mph 1010mb 65f 73f
2:18 6 13 mph 1010.1mb 65f 73f
2:12 7 10 mph 1010mb 65f 73f
2:06 7 9 mph 1010mb 65f 73f
2:00 6 9 mph 1010mb 65f 73f
1:54 6 10 mph 1010.1mb 65f 72f
1:48 7 11 mph 1010.2mb 65f 71f
1:42 7 10 mph 1010.1mb 65f 71f
1:36 6 10 mph 1010mb 65f 71f
1:30 7 10 mph 1010.1mb 65f 71f
1:24 9 10 mph 1010.1mb 65f 71f
1:18 6 11 mph 1010mb 65f 71f
1:12 9 14 mph 1010mb 65f 71f
1:06 11 15 mph 1010mb 65f 71f
1:00 7 13 mph 1010mb 65f 71f
12:54 8 11 mph 1010mb 65f 71f
12:48 5 10 mph 1010mb 65f 71f
12:42 5 11 mph 1010mb 65f 71f
12:36 6 10 mph 1010mb 65f 71f
12:30 8 10 mph 1010.1mb 65f 70f
12:24 6 11 mph 1010.2mb 65f 70f
12:18 11 14 mph 1010.2mb 65f 69f
12:12 7 11 mph 1010.2mb 65f 70f
12:06 9 13 mph 1010.2mb 65f 70f
12:00 8 14 mph 1010.1mb 65f 70f
11:54 8 14 mph 1010.1mb 65f 70f
11:48 8 13 mph 1010mb 65f 70f
11:42 8 11 mph 1010mb 65f 70f
11:36 9 11 mph 1010mb 65f 70f
11:30 8 11 mph 1010mb 65f 69f
11:24 6 14 mph 1009.8mb 65f 69f
11:18 10 13 mph 1009.8mb 65f 69f
11:12 8 13 mph 1009.8mb 65f 69f
11:06 7 10 mph 1009.7mb 65f 68f
11:00 3 8 mph 1009.7mb 65f 68f
10:54 7 11 mph 1009.7mb 65f 68f
10:48 7 10 mph 1009.6mb 65f 68f
10:42 5 9 mph 1009.5mb 65f 68f
10:36 6 9 mph 1009.4mb 65f 68f
10:30 5 7 mph 1009.4mb 65f 67f
10:24 5 11 mph 1009.4mb 65f 67f
10:18 8 11 mph 1009.5mb 65f 67f
10:12 8 11 mph 1009.4mb 65f 66f
10:06 6 9 mph 1009.4mb 65f 66f
10:00 6 9 mph 1009.5mb 65f 66f
9:54 7 11 mph 1009.5mb 65f 65f
9:48 7 11 mph 1009.5mb 65f 65f
9:42 6 10 mph 1009.5mb 66f 65f
9:36 5 11 mph 1009.5mb 66f 65f
9:30 3 6 mph 1009.6mb 66f 64f
9:24 6 8 mph 1009.7mb 66f 64f
9:18 3 6 mph 1009.7mb 66f 63f
9:12 3 8 mph 1009.6mb 66f 62f
9:06 5 7 mph 1009.6mb 66f 61f
9:00 5 7 mph 1009.5mb 66f 61f
8:54 6 8 mph 1009.5mb 65f 61f
8:48 3 6 mph 1009.5mb 65f 60f
8:42 2 3 mph 1009.5mb 65f 59f
8:36 2 3 mph 1009.5mb 65f 59f
8:30 2 3 mph 1009.4mb 65f 59f
8:24 2 3 mph 1009.3mb 65f 58f
8:18 2 5 mph 1009.3mb 65f 58f
8:12 2
mph
1009.2mb 65f 58f
8:06 2 3 mph 1009.1mb 65f 58f
8:00 2 5 mph 1009.1mb 65f 58f
7:54 3
mph
1009.2mb 65f 57f
7:48 2 3 mph 1009.3mb 65f 57f
7:42 2 3 mph 1009.3mb 65f 57f
7:36 2 3 mph 1009.3mb 65f 57f
7:30  -  2 mph 1009.4mb 65f 57f
7:24 2 3 mph 1009.3mb 65f 56f
7:18 2 3 mph 1009.3mb 65f 56f
7:12  -  2 mph 1009.3mb 65f 57f
7:06  -  1 mph 1009.4mb 65f 56f
7:00  -  1 mph 1009.3mb 65f 56f
6:54  -  2 mph 1009.4mb 65f 56f
6:48  -  2 mph 1009.2mb 65f 56f
6:42  -  3 mph 1009.2mb 65f 56f
6:36 3 5 mph 1009.2mb 65f 56f
6:30 2 3 mph 1009.1mb 65f 56f
6:24 2 5 mph 1009.1mb 65f 56f
6:18 2 5 mph 1009.1mb 65f 56f
6:12 2 3 mph 1009mb 65f 56f
6:06 2 3 mph 1009mb 65f 56f
6:00 2 3 mph 1009mb 65f 56f
5:54 2 3 mph 1009mb 65f 55f
5:48 2 3 mph 1008.9mb 65f 55f
5:42 2 3 mph 1008.9mb 65f 55f
5:36 2 3 mph 1008.8mb 65f 55f
5:30 3 5 mph 1008.8mb 65f 55f
5:24 3 5 mph 1008.8mb 65f 55f
5:18 3 5 mph 1008.8mb 65f 55f
5:12 3 5 mph 1008.6mb 65f 55f
5:06 2 6 mph 1008.6mb 65f 55f
5:00 5 6 mph 1008.5mb 65f 55f
4:54 2 5 mph 1008.6mb 65f 55f
4:48 2 3 mph 1008.4mb 65f 55f
4:42 2 3 mph 1008.3mb 65f 55f
4:36 2 3 mph 1008.3mb 65f 55f
4:30  -  1 mph 1008.2mb 65f 55f
4:24  -  1 mph 1008.2mb 65f 54f
4:18 1 3 mph 1008.1mb 65f 54f
4:12 2 3 mph 1008.1mb 65f 55f
4:06 2 5 mph 1008mb 65f 54f
4:00 3 5 mph 1007.9mb 65f 55f
3:54 3 5 mph 1007.8mb 66f 55f
3:48 5 6 mph 1007.8mb 66f 54f
3:42 3 7 mph 1007.9mb 66f 55f
3:36 5 6 mph 1007.7mb 66f 55f
3:30 5 7 mph 1007.8mb 66f 55f
3:24 5 6 mph 1007.8mb 66f 55f
3:18 5 6 mph 1007.8mb 66f 55f
3:12 3 6 mph 1007.7mb 66f 55f
3:06 3 6 mph 1007.7mb 66f 55f
3:00 3 6 mph 1007.8mb 66f 55f
2:54 3
mph
1007.7mb 65f 55f
2:48 2 5 mph - - 54f
2:42 3 5 mph - - 54f
2:36 3 5 mph - - 55f
2:30 2 5 mph - 66f 55f
2:24 2 5 mph - 66f 54f
2:18 2 3 mph - - -
2:12  -  3 mph - - -
2:06  -  3 mph - - -
2:00 1 5 mph 1007.5mb 66f 55f
1:54 3 6 mph 1007.5mb 66f 55f
1:48 5 7 mph 1007.6mb 66f 55f
1:42 3 6 mph 1007.6mb 66f 55f
1:36 2 6 mph 1007.6mb 66f 55f
1:30 5 6 mph 1007.6mb 66f 55f
1:24 3 6 mph 1007.5mb 66f 55f
1:18 3 6 mph 1007.6mb 66f 55f
1:12 3 7 mph 1007.5mb 66f 55f
1:06 3 6 mph 1007.6mb 66f 55f
1:00 5 7 mph 1007.6mb 66f 55f
12:54 2 7 mph 1007.7mb 66f 55f
12:48 3 7 mph 1007.6mb 66f 55f
12:42 3 9 mph 1007.6mb 66f 55f
12:36 7 9 mph 1007.6mb 66f 55f
12:30 6 8 mph 1007.7mb 66f 55f
12:24 6 10 mph 1007.6mb 66f 55f
12:18 7 9 mph 1007.6mb 66f 55f
12:12 7 10 mph 1007.6mb 66f 55f
12:06 7 11 mph 1007.6mb 66f 55f
12:00 5 11 mph 1007.6mb 66f 55f
dom 06/28 11:54 8 10 mph 1007.6mb 66f 55f
11:48 6 11 mph 1007.6mb 66f 55f
11:42 8 11 mph 1007.6mb 66f 55f
11:36 7 14 mph 1007.6mb 66f 55f
11:30 10 13 mph 1007.7mb 66f 55f
11:24 7 9 mph 1007.7mb 66f 56f
11:18 5 11 mph 1007.6mb 66f 55f
11:12 9 13 mph 1007.6mb 66f 55f
11:06 8 9 mph 1007.7mb 66f 55f
11:00 6 13 mph 1007.8mb 66f 56f
10:54 7 10 mph 1007.9mb 66f 56f
10:48 5 10 mph 1007.9mb 66f 56f
10:42 7 11 mph 1007.8mb 66f 56f
10:36 8 13 mph 1007.7mb 66f 56f
10:30 7 11 mph 1007.6mb 66f 56f
10:24 6 11 mph 1007.7mb 66f 56f
10:18 6 13 mph 1007.8mb 66f 56f
10:12 8 14 mph 1007.9mb 66f 56f
10:06 7 11 mph 1007.9mb 66f 56f
10:00 8 11 mph 1007.8mb 66f 56f
9:54 6 11 mph 1007.9mb 66f 56f
9:48 9 13 mph 1007.9mb 66f 56f
9:42 8 13 mph 1007.8mb 66f 56f
9:36 7 14 mph 1007.8mb 66f 56f
9:30 7 11 mph 1007.7mb 66f 56f
9:24 7 11 mph 1007.5mb 66f 56f
9:18 7 15 mph 1007.5mb 66f 56f
9:12 9 13 mph 1007.3mb 66f 56f
9:06 9 13 mph 1007.2mb 66f 56f
9:00 8 11 mph 1007.1mb 66f 57f
8:54 9 14 mph 1007.1mb 66f 57f
8:48 7 14 mph 1007mb 66f 57f
8:42 7 13 mph 1006.9mb 66f 57f
8:36 9 14 mph 1006.8mb 66f 57f
8:30 7 10 mph 1006.8mb 66f 57f
8:24 6 13 mph 1006.8mb 66f 57f
8:18 7 10 mph 1006.8mb 66f 58f
8:12 8 11 mph 1006.7mb 66f 57f
8:06 10 14 mph 1006.6mb 66f 57f
8:00 8 11 mph 1006.5mb 66f 58f
7:54 7 11 mph 1006.4mb 66f 58f
7:48 7 10 mph 1006.2mb 66f 58f
7:42 7 14 mph 1006mb 66f 58f
7:36 9 13 mph 1005.9mb 66f 58f
7:30 9 11 mph 1005.9mb 66f 58f
7:24 7 14 mph 1005.8mb 66f 59f
7:18 8 14 mph 1005.8mb 66f 59f
7:12 10 13 mph 1005.6mb 66f 59f
7:06 10 13 mph 1005.5mb 66f 59f
7:00 8 13 mph 1005.4mb 66f 60f
6:54 3 10 mph 1005.4mb 66f 60f
6:48 7 13 mph 1005.3mb 66f 60f
6:42 9 13 mph 1005.1mb 66f 60f
6:36 8 13 mph 1004.8mb 66f 60f
6:30 9 13 mph 1004.9mb 66f 60f
6:24 9 14 mph 1004.8mb 66f 60f
6:18 8 14 mph 1004.7mb 66f 60f
6:12 9 16 mph 1004.6mb 66f 60f
6:06 9 16 mph 1004.6mb 66f 60f
6:00 10 15 mph 1004.3mb 66f 60f
5:54 8 14 mph 1004.2mb 66f 61f
5:48 6 13 mph 1004.1mb 66f 61f
5:42 9 15 mph 1004.2mb 66f 60f
5:36 8 10 mph 1004.2mb 66f 61f
5:30 9 13 mph 1004.2mb 66f 61f
5:24 9 15 mph 1004.3mb 66f 61f
5:18 9 17 mph 1004.2mb 66f 61f
5:12 11 17 mph 1004.2mb 66f 61f
5:06 10 16 mph 1004.1mb 66f 61f
5:00 11 17 mph 1004.2mb 66f 62f
4:54 13 17 mph 1004.2mb 66f 62f
4:48 10 17 mph 1004.1mb 66f 62f
4:42 9 14 mph 1004mb 66f 62f
4:36 6 14 mph 1004.1mb 66f 62f
4:30 10 16 mph 1004mb 66f 62f
4:24 7 13 mph 1003.9mb 66f 63f
4:18 7 15 mph 1003.9mb 66f 62f
4:12 8 17 mph 1003.8mb 66f 63f
4:06 10 15 mph 1003.8mb 66f 63f
4:00 11 16 mph 1004mb 66f 63f
3:54 8 17 mph 1004mb 66f 63f
3:48 8 18 mph 1003.9mb 66f 63f
3:42 8 16 mph 1004mb 66f 63f
3:36 8 15 mph 1004mb 66f 63f
3:30 7 14 mph 1003.9mb 66f 63f
3:24 11 18 mph 1003.9mb 66f 63f
3:18 10 20 mph 1003.9mb 66f 63f
3:12 9 15 mph 1003.7mb 66f 63f
3:06 10 15 mph 1003.8mb 66f 63f
3:00 9 17 mph 1003.7mb 67f 63f
2:54 14 18 mph 1003.6mb 67f 63f
2:48 11 16 mph 1003.6mb 67f 64f
2:42 9 16 mph 1003.5mb 67f 63f
2:36 11 20 mph 1003.6mb 67f 63f
2:30 10 17 mph 1003.5mb 67f 63f
2:24 9 17 mph 1003.6mb 67f 63f
2:18 9 18 mph 1003.5mb 67f 64f
2:12 9 14 mph 1003.4mb 67f 63f
2:06 8 16 mph 1003.5mb 67f 63f
2:00 10 16 mph 1003.4mb 66f 64f
1:54 10 16 mph 1003.4mb 66f 64f
1:48 9 16 mph 1003.3mb 66f 64f
1:42 9 16 mph 1003.2mb 66f 64f
1:36 11 16 mph 1003.4mb 66f 63f
1:30 13 20 mph 1003.6mb 66f 63f
1:24 7 14 mph 1003.7mb 66f 64f
1:18 8 16 mph 1003.6mb 66f 63f
1:12 8 15 mph 1003.6mb 66f 64f
1:06 9 17 mph 1003.6mb 66f 64f
1:00 10 16 mph 1003.6mb 66f 64f
12:54 13 17 mph 1003.7mb 66f 64f
12:48 9 13 mph 1003.8mb 66f 64f
12:42 8 15 mph 1003.9mb 66f 64f
12:36 9 15 mph 1003.8mb 66f 64f
12:30 10 16 mph 1003.7mb 66f 64f
12:24 9 16 mph 1003.7mb 66f 63f
12:18 6 11 mph 1003.8mb 66f 64f
12:12 9 15 mph 1003.7mb 66f 64f
12:06 10 16 mph 1003.7mb 66f 64f
12:00 8 15 mph 1003.8mb 66f 64f
11:54 7 13 mph 1003.8mb 66f 64f
11:48 9 14 mph 1003.7mb 66f 64f
11:42 8 15 mph 1003.8mb 66f 64f
11:36 7 14 mph 1003.9mb 66f 64f
11:30 8 14 mph 1003.9mb 66f 64f
11:24 7 15 mph 1003.8mb 66f 64f
11:18 9 15 mph 1003.8mb 66f 64f
11:12 7 13 mph 1003.9mb 66f 64f
11:06 7 14 mph 1004mb 66f 64f
11:00 8 13 mph 1004.1mb 66f 64f
10:54 7 13 mph 1004mb 67f 64f
10:48 8 14 mph 1004mb 67f 64f
10:42 9 15 mph 1004mb 67f 64f
10:36 8 17 mph 1004mb 67f 64f
10:30 8 13 mph 1004mb 67f 64f
10:24 8 14 mph 1004.1mb 67f 64f
10:18 8 11 mph 1004.3mb 67f 64f
10:12 7 13 mph 1004.3mb 67f 64f
10:06 7 13 mph 1004.2mb 67f 64f
10:00 8 15 mph 1004.3mb 67f 64f
9:54 7 11 mph 1004.4mb 67f 64f
9:48 7 13 mph 1004.5mb 67f 64f
9:42 8 11 mph 1004.5mb 67f 64f
9:36 9 14 mph 1004.5mb 67f 64f
9:30 8 13 mph 1004.6mb 67f 64f
9:24 9 14 mph 1004.7mb 67f 64f
9:18 7 11 mph 1004.7mb 67f 64f
9:12 7 14 mph 1004.8mb 67f 64f
9:06 10 14 mph 1004.9mb 67f 64f
9:00 7 13 mph 1004.9mb 67f 64f
8:54 7 13 mph 1005.1mb 67f 64f
8:48 8 13 mph 1005.2mb 67f 64f
8:42 7 13 mph 1005.3mb 67f 63f
8:36 8 11 mph 1005.2mb 67f 64f
8:30 9 13 mph 1005.2mb 67f 64f
8:24 6 13 mph 1005.3mb 67f 64f
8:18 6 13 mph 1005.5mb 67f 63f
8:12 7 11 mph 1005.5mb 67f 63f
8:06 6 9 mph 1005.6mb 67f 63f
8:00 8 11 mph 1005.6mb 67f 63f
7:54 7 10 mph 1005.6mb 67f 63f
7:48 7 13 mph 1005.7mb 67f 63f
7:42 6 11 mph 1005.7mb 67f 63f
7:36 9 17 mph 1005.8mb 67f 63f
7:30 9 18 mph 1005.8mb 67f 63f
7:24 9 17 mph 1005.8mb 67f 63f
7:18 8 16 mph 1005.9mb 67f 63f
7:12 7 11 mph 1005.9mb 67f 63f
7:06 10 17 mph 1006mb 67f 63f
7:00 8 14 mph 1006mb 67f 63f
6:54 10 18 mph 1006mb 67f 63f
6:48 7 11 mph 1006.2mb 67f 63f
6:42 9 16 mph 1006.3mb 67f 63f
6:36 10 16 mph 1006.5mb 67f 63f
6:30 8 14 mph 1006.4mb 67f 63f
6:24 11 23 mph 1006.6mb 67f 63f
6:18 13 21 mph 1006.2mb 67f 63f
6:12 10 20 mph 1006.3mb 67f 63f
6:06 11 23 mph 1006.5mb 67f 63f
6:00 16 23 mph - - 63f
5:54 9 17 mph - - 63f
5:48  -  mph 1006.7mb 67f -
5:42  -  mph 1007mb 67f -
5:36  -  mph 1007.2mb 67f -
5:30  -  mph 1007.5mb 67f -
5:24  -  mph 1007.9mb 67f -
5:18  -  mph - - 62f
5:12  -  mph - - 62f
5:06  -  mph - - 62f
5:00 9 20 mph 1008.4mb 67f 62f
4:54 7 13 mph 1008.5mb 67f 62f
4:48 9 13 mph 1008.8mb 67f 62f
4:42 7 14 mph 1008.9mb 67f 61f
4:36 7 10 mph 1009.1mb 67f 61f
4:30 8 13 mph 1009.2mb 67f 61f
4:24 6 11 mph 1009.3mb 67f 61f
4:18 7 11 mph 1009.5mb 67f 60f
4:12 6 10 mph 1009.6mb 67f 60f
4:06 6 11 mph 1009.6mb 67f 60f
4:00 6 14 mph 1009.7mb 67f 60f
3:54 8 15 mph 1009.8mb 67f 60f
3:48 9 13 mph 1009.8mb 67f 60f
3:42 8 11 mph 1010mb 67f 60f
3:36 6 11 mph 1010.3mb 67f 60f
3:30 6 13 mph 1010.5mb 67f 60f
3:24 8 14 mph 1010.7mb 67f 60f
3:18 7 13 mph 1010.9mb 67f 59f
3:12 8 13 mph 1011mb 67f 60f
3:06 7 13 mph 1011.1mb 67f 60f
3:00 7 13 mph 1011.4mb - 59f
2:54 9 14 mph 1011.6mb - 59f
2:48 8 15 mph 1012mb 67f 60f
2:42 9 16 mph 1012.1mb 67f 59f
2:36 10 15 mph 1012.3mb 67f 59f
2:30 10 15 mph 1012.5mb 67f 59f
2:24 8 16 mph 1012.7mb 67f 59f
2:18 10 16 mph - - 59f
2:12 9 15 mph - - 59f
2:06 9 13 mph - - 59f
2:00 10 16 mph 1013.4mb 68f 59f
1:54 10 17 mph 1013.6mb 68f 59f
1:48 13 18 mph 1013.8mb 68f 59f
1:42 10 18 mph 1013.9mb 68f 59f
1:36 13 20 mph 1014mb 68f 59f
1:30 14 21 mph 1014.1mb 68f 59f
1:24 14 18 mph 1014.2mb 68f 60f
1:18 13 18 mph 1014.3mb 68f 60f
1:12 15 20 mph 1014.5mb 68f 60f
1:06 14 18 mph 1014.6mb 68f 60f
1:00 15 20 mph 1014.8mb 68f 60f
12:54 15 18 mph 1014.8mb 68f 60f
12:48 15 21 mph 1014.8mb 68f 60f
12:42 15 21 mph 1014.8mb 68f 60f
12:36 13 20 mph 1015.1mb 68f 60f
12:30 14 18 mph 1015.7mb 68f 60f
12:24 14 18 mph 1015.9mb 68f 60f
12:18 11 17 mph 1015.9mb 68f 60f
12:12 10 15 mph 1016.2mb 68f 60f
12:06 11 16 mph 1016.3mb 68f 60f
12:00 10 16 mph 1016.1mb 68f 60f
sáb 06/27 11:54 9 15 mph 1016mb 68f 60f
11:48 8 14 mph 1016.2mb 68f 60f
11:42 8 14 mph 1016.5mb 68f 60f
11:36 9 13 mph 1016.7mb 68f 60f
11:30 8 11 mph 1016.8mb 68f 60f
11:24 7 10 mph 1017mb 68f 60f
11:18 7 10 mph 1017mb 68f 60f
11:12 8 11 mph 1017.5mb 68f 60f
11:06 7 13 mph 1017.8mb 68f 60f
11:00 7 9 mph 1017.9mb 68f 60f
10:54 6 9 mph 1018.4mb 68f 60f
10:48 6 9 mph 1018.5mb 68f 61f
10:42 6 9 mph 1018.4mb 68f 61f
10:36 7 9 mph 1018.5mb 68f 61f
10:30 6 10 mph 1018.6mb 68f 61f
10:24 5 9 mph 1018.8mb 68f 61f
10:18 6 8 mph 1019mb 68f 61f
10:12 3 5 mph 1019mb 68f 61f
10:06 5 7 mph 1018.9mb 68f 61f
10:00 3 7 mph 1019mb 68f 61f
9:54 5 8 mph 1019mb 68f 61f
9:48 6 9 mph 1019.1mb 68f 62f
9:42 5 8 mph 1019.1mb 68f 62f
9:36 6 8 mph 1018.9mb 68f 62f
9:30 8 11 mph 1018.8mb 68f 63f
9:24 8 11 mph 1018.8mb 68f 62f
9:18 6 9 mph 1018.8mb 68f 63f
9:12 5 9 mph 1018.8mb 69f 63f
9:06 7 10 mph 1018.8mb 69f 63f
9:00 7 11 mph 1018.8mb 68f 64f
8:54 8 10 mph 1018.8mb 68f 64f
8:48 11 14 mph 1018.9mb 68f 65f
8:42 9 11 mph 1018.9mb 68f 65f
8:36 8 10 mph 1019mb 68f 65f
8:30 8 11 mph 1019.1mb 68f 65f
8:24 10 13 mph 1019mb 68f 65f
8:18 9 15 mph 1019mb 68f 65f
8:12 14 16 mph 1019mb 68f 65f
8:06 7 9 mph 1019mb 68f 65f
8:00 8 9 mph 1019mb 68f 65f
7:54 7 10 mph 1018.9mb 68f 65f
7:48 10 11 mph 1018.9mb 68f 66f
7:42 9 11 mph 1018.9mb 68f 66f
7:36 8 10 mph 1019mb 68f 66f
7:30 9 10 mph 1019mb 68f 66f
7:24 7 8 mph 1019mb 68f 66f
7:18 6 8 mph 1019mb 68f 66f
7:12 7 8 mph 1018.9mb 68f 66f
7:06 8 13 mph 1018.9mb 68f 66f
7:00 10 11 mph 1019mb 68f 66f
6:54 10 11 mph 1019mb 68f 67f
6:48 10 14 mph 1019.1mb 68f 67f
6:42 9 14 mph 1019.2mb 68f 67f
6:36 10 14 mph 1019.2mb 68f 67f
6:30 10 15 mph 1019.3mb 68f 67f
6:24 9 14 mph 1019.4mb 68f 67f
6:18 11 14 mph 1019.5mb 68f 67f
6:12 11 15 mph 1019.5mb 67f 67f
6:06 13 17 mph 1019.6mb 67f 67f
6:00 11 16 mph 1019.7mb 67f 67f
5:54 10 16 mph 1019.8mb 67f 68f
5:48 11 14 mph 1019.9mb 67f 68f
5:42 9 14 mph 1019.9mb 67f 68f
5:36 8 11 mph 1019.9mb 67f 68f
5:30 9 14 mph 1019.9mb 67f 68f
5:24 9 15 mph 1020mb 67f 68f
5:18 9 14 mph 1020mb 67f 68f
5:12 9 13 mph 1020mb 67f 68f
5:06 9 13 mph 1019.9mb 67f 68f
5:00 9 15 mph 1019.9mb 67f 68f
4:54 11 15 mph 1019.9mb 67f 68f
4:48 9 13 mph 1019.9mb 67f 68f
4:42 9 14 mph 1019.9mb 67f 68f
4:36 13 15 mph 1019.9mb 67f 67f
4:30 9 14 mph 1020mb 67f 67f
4:24 8 13 mph 1020.1mb 67f 68f
4:18 7 13 mph 1020.1mb 67f 68f
4:12 10 13 mph 1020.3mb 67f 68f
4:06 9 11 mph 1020.3mb 67f 68f
4:00 5 11 mph 1020.4mb 67f 69f
3:54 9 14 mph 1020.4mb 67f 68f
3:48 11 14 mph 1020.4mb 67f 68f
3:42 9 13 mph 1020.5mb 67f 69f
3:36 7 14 mph 1020.4mb 67f 69f
3:30 8 10 mph 1020.4mb 67f 69f
3:24 7 14 mph 1020.4mb 67f 69f
3:18 7 11 mph 1020.3mb 67f 69f
3:12 13 15 mph 1020.2mb 67f 69f
3:06 10 14 mph 1020.1mb 67f 69f
3:00 9 16 mph 1020mb 67f 69f
2:54 11 15 mph 1020mb 67f 69f
2:48 11 15 mph 1019.9mb 67f 69f
2:42 13 15 mph 1019.9mb 67f 70f
2:36 9 15 mph 1019.7mb 67f 70f
2:30 9 13 mph 1019.6mb 67f 70f
2:24 9 14 mph 1019.7mb 67f 70f
2:18 10 15 mph 1019.6mb 67f 70f
2:12 13 15 mph 1019.7mb 67f 71f
2:06 10 13 mph 1019.8mb 67f 70f
2:00 8 11 mph 1019.8mb 67f 71f
1:54 8 11 mph 1019.8mb 67f 70f
1:48 8 11 mph 1019.8mb 67f 71f
1:42 9 11 mph 1019.8mb 67f 71f
1:36 8 11 mph 1019.8mb 67f 71f
1:30 8 10 mph 1019.8mb 68f 71f
1:24 9 11 mph 1019.9mb 68f 71f
1:18 9 11 mph 1019.8mb 68f 71f
1:12 8 9 mph 1019.9mb 68f 70f
1:06 7 10 mph 1019.9mb 68f 71f
1:00 9 10 mph 1019.9mb 68f 71f
12:54 8 10 mph 1019.9mb 68f 71f
12:48 8 10 mph 1019.9mb 68f 70f
12:42 8 11 mph 1019.9mb 68f 71f
12:36 7 11 mph 1019.9mb 67f 71f
12:30 8 13 mph 1019.9mb 68f 71f
12:24 9 13 mph 1020mb 67f 71f
12:18 7 11 mph 1020mb 68f 71f
12:12 10 11 mph 1020.1mb 68f 70f
12:06 8 11 mph 1020.1mb 68f 70f
12:00 8 10 mph 1020.2mb 68f 71f
11:54 7 10 mph 1020.3mb 68f 71f
11:48 7 10 mph 1020.4mb 68f 70f
11:42 7 9 mph 1020.4mb 68f 70f
11:36 9 11 mph 1020.5mb 68f 69f
11:30 7 10 mph 1020.5mb 68f 70f
11:24 6 9 mph 1020.6mb 68f 70f
11:18 7 9 mph 1020.5mb 68f 69f
11:12 7 10 mph 1020.5mb 68f 69f
11:06 7 8 mph 1020.5mb 68f 69f
11:00 5 6 mph 1020.5mb 67f 69f
10:54 1 3 mph 1020.5mb 67f 69f
10:48 2 3 mph 1020.6mb 67f 68f
10:42 1 3 mph 1020.6mb 67f 68f
10:36 2 3 mph 1020.5mb 67f 68f
10:30 2 3 mph 1020.5mb 67f 67f
10:24 2 3 mph 1020.6mb 67f 67f
10:18 2 3 mph 1020.6mb 67f 67f
10:12 2 6 mph 1020.6mb 67f 67f
10:06 5 6 mph 1020.6mb 67f 67f
10:00 5 7 mph 1020.7mb 67f 67f
9:54 5 7 mph 1020.7mb 67f 67f
9:48 6 8 mph 1020.7mb 67f 66f
9:42 7 8 mph 1020.8mb 67f 66f
9:36 6 8 mph 1020.8mb 67f 66f
9:30 5 9 mph 1020.8mb 67f 65f
9:24 7 9 mph 1020.9mb 68f 65f
9:18 6 8 mph 1021mb 68f 65f
9:12 6 7 mph 1021.1mb 68f 65f
9:06 6 7 mph 1021.1mb 68f 65f
9:00 6 8 mph 1021.1mb 68f 65f
8:54 7 9 mph 1021.2mb 68f 65f
8:48 6 7 mph 1021.2mb 68f 65f
8:42 5 6 mph 1021.3mb 68f 64f
8:36 2
mph
1021.2mb 68f 64f
8:30 2
mph
1021.2mb 68f 64f
8:24 2 3 mph 1021.2mb 68f 64f
8:18 2 3 mph 1021.2mb 68f 64f
8:12 2 3 mph 1021.3mb 68f 63f
8:06 2
mph
1021.2mb 68f 63f
8:00 1 3 mph 1021.2mb 68f 63f
7:54 3
mph
1021.1mb 68f 63f
7:48 2 3 mph 1021mb 68f 62f
7:42 1 3 mph 1020.9mb 68f 62f
7:36 3 5 mph 1020.9mb 68f 62f
7:30 3 5 mph 1020.7mb 68f 62f
7:24 3 6 mph 1020.5mb 68f 62f
7:18 3
mph
1020.6mb 68f 62f
7:12 3
mph
1020.6mb 68f 62f
7:06 2 3 mph 1020.5mb 68f 61f
7:00 2 3 mph 1020.4mb 68f 61f
6:54 2 3 mph 1020.3mb 68f 61f
6:48 2 3 mph 1020.1mb 68f 61f
6:42 2 3 mph 1020mb 67f 61f
6:36 2 3 mph 1020mb 67f 61f
6:30 2
mph
1020mb 67f 61f
6:24  -  2 mph 1019.9mb 67f 62f
6:18  -  1 mph 1019.9mb 67f 62f
6:12  -  2 mph 1019.8mb 67f 62f
6:06  -  2 mph 1019.7mb 67f 61f
6:00  -  3 mph 1019.6mb 67f 61f
5:54  -  2 mph 1019.5mb 67f 61f
5:48 2
mph
1019.4mb 67f 60f
5:42 2 3 mph 1019.3mb 67f 60f
5:36 1 2 mph 1019.3mb 67f 60f
5:30  -  2 mph 1019.3mb 67f 59f
5:24 2 3 mph 1019.2mb 67f 59f
5:18 2 3 mph 1019.2mb 67f 60f
5:12 1 3 mph 1019.2mb 67f 59f
5:06 2 3 mph 1019.2mb 67f 60f
5:00 2 3 mph 1019.2mb 67f 60f
4:54 1 3 mph 1019.1mb 67f 60f
4:48 1 2 mph 1019.1mb 67f 60f
4:42 2 3 mph 1019mb 67f 60f
4:36  -  1 mph 1019mb 67f 60f
4:30 1 2 mph 1018.9mb 67f 60f
4:24  -  2 mph 1018.7mb 67f 60f
4:18  -  1 mph 1018.7mb 67f 60f
4:12  -  1 mph 1018.7mb 67f 60f
4:06  -  2 mph 1018.8mb 67f 60f
4:00 2 3 mph 1018.7mb 67f 60f
3:54 1 3 mph 1018.7mb 67f 60f
3:48  -  3 mph 1018.6mb 67f 61f
3:42 1 3 mph 1018.6mb 67f 61f
3:36  -  5 mph 1018.6mb 67f 61f
3:30 2 3 mph 1018.6mb 67f 61f
3:24 1 3 mph 1018.6mb 67f 61f
3:18 1 3 mph 1018.5mb 67f 61f
3:12  -  2 mph 1018.5mb 67f 61f
3:06  -  1 mph 1018.4mb 67f 61f
3:00  -  2 mph 1018.4mb 67f 61f
2:54 1 2 mph 1018.4mb 67f 61f
2:48 1 3 mph 1018.3mb 68f 61f
2:42 2 3 mph 1018.3mb 68f 62f
2:36 1 3 mph 1018.4mb 68f 62f
2:30 2 3 mph 1018.4mb 68f 62f
2:24 2
mph
1018.4mb 68f 62f
2:18 2 3 mph 1018.4mb 68f 62f
2:12 2 3 mph 1018.3mb 68f 62f
2:06 2 5 mph 1018.3mb 68f 63f
2:00 3 5 mph 1018.2mb 68f 63f
1:54 3 5 mph 1018.2mb 68f 63f
1:48 3
mph
1018mb 68f 64f
1:42 3
mph
1018mb 68f 64f
1:36 2 3 mph 1018mb 68f 64f
1:30 3
mph
1018mb 68f 64f
1:24 2 3 mph 1017.9mb 68f 63f
1:18 2 3 mph 1018mb 68f 64f
1:12 2
mph
1018mb 68f 64f
1:06 1 2 mph 1018mb 68f 64f
1:00 1 2 mph 1018mb 68f 64f
12:54  -  1 mph 1018mb 68f 63f